createdAt,value
2017-12-20T00:00:32.412Z,101033.14
2017-12-20T00:02:59.911Z,101038.78
2017-12-20T00:05:27.372Z,101038.78
2017-12-20T00:07:54.933Z,101037.33
2017-12-20T00:10:22.408Z,101022.86
2017-12-20T00:12:49.875Z,101027.19
2017-12-20T00:15:17.359Z,101028.59
2017-12-20T00:17:44.831Z,101030.77
2017-12-20T00:20:12.319Z,101025.08
2017-12-20T00:22:39.839Z,101025.72
2017-12-20T00:25:07.295Z,101028.44
2017-12-20T00:27:34.851Z,101028.96
2017-12-20T00:30:02.412Z,101033.42
2017-12-20T00:32:29.888Z,101039.66
2017-12-20T00:34:57.352Z,101026.73
2017-12-20T00:37:24.811Z,101026.64
2017-12-20T00:39:52.332Z,101023.91
2017-12-20T00:42:19.802Z,101026.22
2017-12-20T00:44:47.271Z,101021.70
2017-12-20T00:47:14.796Z,101029.20
2017-12-20T00:49:42.260Z,101029.81
2017-12-20T00:52:09.740Z,101019.41
2017-12-20T00:54:37.221Z,101028.80
2017-12-20T00:57:04.689Z,101034.63
2017-12-20T00:59:32.164Z,101038.81
2017-12-20T01:01:59.671Z,101037.42
2017-12-20T01:04:27.159Z,101041.69
2017-12-20T01:06:54.685Z,101037.70
2017-12-20T01:09:22.171Z,101039.17
2017-12-20T01:11:49.649Z,101037.87
2017-12-20T01:14:17.117Z,101034.91
2017-12-20T01:16:44.596Z,101034.94
2017-12-20T01:19:12.074Z,101037.55
2017-12-20T01:21:39.542Z,101030.94
2017-12-20T01:24:07.039Z,101024.37
2017-12-20T01:26:34.507Z,101029.84
2017-12-20T01:29:02.001Z,101036.41
2017-12-20T01:31:29.499Z,101025.41
2017-12-20T01:33:57.048Z,101023.84
2017-12-20T01:36:24.566Z,101021.00
2017-12-20T01:38:52.077Z,101029.27
2017-12-20T01:41:19.616Z,101026.84
2017-12-20T01:43:47.095Z,101028.44
2017-12-20T01:46:14.603Z,101034.23
2017-12-20T01:48:42.113Z,101027.18
2017-12-20T01:51:09.595Z,101023.23
2017-12-20T01:53:37.110Z,101021.36
2017-12-20T01:56:04.591Z,101021.80
2017-12-20T01:58:32.079Z,101026.64
2017-12-20T02:00:59.548Z,101026.28
2017-12-20T02:03:27.026Z,101033.51
2017-12-20T02:05:54.491Z,101028.20
2017-12-20T02:08:21.974Z,101031.95
2017-12-20T02:10:49.482Z,101034.86
2017-12-20T02:13:16.963Z,101037.95
2017-12-20T02:15:44.452Z,101041.04
2017-12-20T02:18:11.911Z,101034.64
2017-12-20T02:20:39.430Z,101038.20
2017-12-20T02:23:06.936Z,101051.26
2017-12-20T02:25:34.400Z,101028.67
2017-12-20T02:28:01.892Z,101033.64
2017-12-20T02:30:29.379Z,101047.69
2017-12-20T02:32:56.883Z,101036.80
2017-12-20T02:35:24.385Z,101041.81
2017-12-20T02:37:51.871Z,101037.95
2017-12-20T02:40:19.357Z,101046.13
2017-12-20T02:42:46.845Z,101042.56
2017-12-20T02:45:14.320Z,101041.08
2017-12-20T02:47:41.823Z,101040.39
2017-12-20T02:50:09.315Z,101041.13
2017-12-20T02:52:36.820Z,101051.75
2017-12-20T02:55:04.308Z,101047.17
2017-12-20T02:57:31.803Z,101044.00
2017-12-20T02:59:59.287Z,101043.53
2017-12-20T03:02:26.764Z,101042.48
2017-12-20T03:04:54.260Z,101046.22
2017-12-20T03:07:21.762Z,101046.35
2017-12-20T03:09:49.240Z,101047.73
2017-12-20T03:12:16.752Z,101053.28
2017-12-20T03:14:44.251Z,101053.97
2017-12-20T03:17:11.719Z,101045.84
2017-12-20T03:19:39.195Z,101058.94
2017-12-20T03:22:06.766Z,101053.58
2017-12-20T03:24:34.356Z,101052.66
2017-12-20T03:27:01.811Z,101049.10
2017-12-20T03:29:29.288Z,101050.48
2017-12-20T03:31:56.766Z,101046.92
2017-12-20T03:34:24.338Z,101045.17
2017-12-20T03:36:51.917Z,101046.73
2017-12-20T03:39:19.397Z,101047.88
2017-12-20T03:41:46.874Z,101052.50
2017-12-20T03:44:14.454Z,101048.27
2017-12-20T03:46:41.916Z,101054.77
2017-12-20T03:49:09.599Z,101047.14
2017-12-20T03:51:37.236Z,101046.97
2017-12-20T03:54:04.716Z,101047.05
2017-12-20T03:56:32.360Z,101048.53
2017-12-20T03:58:59.827Z,101053.66
2017-12-20T04:01:28.476Z,101049.84
2017-12-20T04:03:56.226Z,101041.34
2017-12-20T04:06:24.073Z,101059.02
2017-12-20T04:08:53.610Z,101053.63
2017-12-20T04:21:02.249Z,101060.22
2017-12-20T04:23:29.754Z,101059.52
2017-12-20T04:25:57.218Z,101051.27
2017-12-20T04:28:24.730Z,101050.00
2017-12-20T04:30:52.208Z,101049.97
2017-12-20T04:33:19.687Z,101052.19
2017-12-20T04:35:47.192Z,101048.31
2017-12-20T04:38:14.676Z,101052.80
2017-12-20T04:40:42.132Z,101048.75
2017-12-20T04:43:09.623Z,101050.61
2017-12-20T04:45:37.099Z,101052.41
2017-12-20T04:48:04.639Z,101058.68
2017-12-20T04:50:32.101Z,101058.38
2017-12-20T04:52:59.559Z,101057.71
2017-12-20T04:55:27.173Z,101054.54
2017-12-20T04:57:54.678Z,101061.50
2017-12-20T05:00:22.152Z,101070.70
2017-12-20T05:02:49.607Z,101074.13
2017-12-20T05:05:17.078Z,101077.09
2017-12-20T05:07:44.623Z,101077.70
2017-12-20T05:10:12.093Z,101080.48
2017-12-20T05:12:39.556Z,101080.28
2017-12-20T05:15:07.031Z,101075.96
2017-12-20T05:17:34.510Z,101086.19
2017-12-20T05:20:02.000Z,101085.33
2017-12-20T05:22:29.486Z,101089.34
2017-12-20T05:24:56.951Z,101079.88
2017-12-20T05:27:24.445Z,101086.89
2017-12-20T05:29:52.001Z,101086.02
2017-12-20T05:32:19.521Z,101091.08
2017-12-20T05:34:47.035Z,101096.43
2017-12-20T05:37:14.506Z,101094.42
2017-12-20T05:39:42.004Z,101098.09
2017-12-20T05:42:09.485Z,101100.97
2017-12-20T05:44:36.967Z,101102.00
2017-12-20T05:47:04.441Z,101104.66
2017-12-20T05:49:31.895Z,101101.45
2017-12-20T05:51:59.392Z,101099.66
2017-12-20T05:54:26.850Z,101096.08
2017-12-20T05:56:54.328Z,101099.27
2017-12-20T05:59:21.801Z,101098.52
2017-12-20T06:01:49.300Z,101100.36
2017-12-20T06:04:16.777Z,101107.27
2017-12-20T06:06:44.268Z,101116.11
2017-12-20T06:09:11.809Z,101118.34
2017-12-20T06:11:39.288Z,101115.98
2017-12-20T06:14:06.878Z,101120.30
2017-12-20T06:16:34.351Z,101111.50
2017-12-20T06:19:01.856Z,101109.31
2017-12-20T06:21:29.357Z,101121.13
2017-12-20T06:23:56.922Z,101118.41
2017-12-20T06:26:24.443Z,101116.95
2017-12-20T06:28:51.899Z,101117.38
2017-12-20T06:31:19.408Z,101116.41
2017-12-20T06:33:46.882Z,101118.73
2017-12-20T06:36:14.368Z,101120.73
2017-12-20T06:38:41.926Z,101126.92
2017-12-20T06:41:09.383Z,101128.00
2017-12-20T06:43:36.850Z,101129.78
2017-12-20T06:46:04.349Z,101136.50
2017-12-20T06:48:31.831Z,101139.81
2017-12-20T06:50:59.324Z,101139.33
2017-12-20T06:53:26.840Z,101149.48
2017-12-20T06:55:54.378Z,101156.89
2017-12-20T06:58:21.846Z,101157.50
2017-12-20T07:00:49.346Z,101161.59
2017-12-20T07:03:16.810Z,101166.74
2017-12-20T07:05:44.300Z,101165.17
2017-12-20T07:08:11.806Z,101172.19
2017-12-20T07:10:39.378Z,101174.94
2017-12-20T07:13:06.839Z,101183.70
2017-12-20T07:15:34.431Z,101177.59
2017-12-20T07:18:01.899Z,101183.70
2017-12-20T07:20:29.499Z,101189.31
2017-12-20T07:22:57.067Z,101179.73
2017-12-20T07:25:24.609Z,101179.95
2017-12-20T07:27:52.065Z,101181.60
2017-12-20T07:30:19.590Z,101193.03
2017-12-20T07:32:47.049Z,101207.70
2017-12-20T07:35:14.713Z,101200.55
2017-12-20T07:37:43.053Z,101207.09
2017-12-20T07:40:10.684Z,101204.05
2017-12-20T07:42:38.244Z,101216.42
2017-12-20T07:45:05.818Z,101229.54
2017-12-20T07:47:33.355Z,101229.42
2017-12-20T07:50:03.518Z,101228.58
2017-12-20T07:52:31.301Z,101234.91
2017-12-20T07:54:58.832Z,101239.04
2017-12-20T07:57:26.407Z,101232.23
2017-12-20T07:59:53.896Z,101227.80
2017-12-20T08:02:21.352Z,101239.27
2017-12-20T08:04:48.844Z,101230.77
2017-12-20T08:07:16.311Z,101228.62
2017-12-20T08:09:43.809Z,101235.44
2017-12-20T08:12:11.306Z,101239.75
2017-12-20T08:14:38.949Z,101237.88
2017-12-20T08:17:06.548Z,101248.29
2017-12-20T08:19:34.069Z,101241.40
2017-12-20T08:22:01.855Z,101238.48
2017-12-20T08:24:31.806Z,101234.13
2017-12-20T08:27:05.292Z,101227.45
2017-12-20T08:29:34.388Z,101230.28
2017-12-20T08:32:02.063Z,101240.80
2017-12-20T08:34:29.619Z,101239.97
2017-12-20T08:36:57.276Z,101240.92
2017-12-20T08:39:24.825Z,101237.83
2017-12-20T08:41:52.325Z,101239.58
2017-12-20T08:44:19.958Z,101235.73
2017-12-20T08:46:48.889Z,101241.88
2017-12-20T08:49:16.421Z,101236.73
2017-12-20T08:51:44.339Z,101234.69
2017-12-20T08:54:11.954Z,101236.99
2017-12-20T08:56:39.453Z,101227.75
2017-12-20T08:59:07.013Z,101241.34
2017-12-20T09:01:34.602Z,101239.38
2017-12-20T09:04:02.128Z,101232.84
2017-12-20T09:06:29.645Z,101241.13
2017-12-20T09:08:57.119Z,101236.27
2017-12-20T09:11:24.855Z,101233.13
2017-12-20T09:13:52.600Z,101234.72
2017-12-20T09:16:20.224Z,101235.86
2017-12-20T09:18:48.011Z,101230.95
2017-12-20T09:21:15.514Z,101225.03
2017-12-20T09:23:43.327Z,101213.70
2017-12-20T09:26:10.925Z,101217.30
2017-12-20T09:28:38.444Z,101216.13
2017-12-20T09:31:05.920Z,101213.61
2017-12-20T09:33:33.445Z,101212.23
2017-12-20T09:36:00.974Z,101211.95
2017-12-20T09:38:28.807Z,101219.08
2017-12-20T09:40:56.308Z,101221.61
2017-12-20T09:43:23.785Z,101221.56
2017-12-20T09:45:51.261Z,101211.05
2017-12-20T09:48:18.796Z,101204.98
2017-12-20T09:50:46.299Z,101205.74
2017-12-20T09:53:13.803Z,101193.75
2017-12-20T09:55:41.613Z,101192.89
2017-12-20T09:58:09.120Z,101195.58
2017-12-20T10:00:36.586Z,101200.48
2017-12-20T10:03:04.723Z,101200.84
2017-12-20T10:05:32.770Z,101197.64
2017-12-20T10:08:00.216Z,101195.03
2017-12-20T10:10:27.704Z,101189.09
2017-12-20T10:12:55.275Z,101194.16
2017-12-20T10:15:22.755Z,101195.53
2017-12-20T10:17:50.251Z,101200.53
2017-12-20T10:20:17.930Z,101195.50
2017-12-20T10:22:45.429Z,101197.23
2017-12-20T10:25:12.995Z,101197.84
2017-12-20T10:27:40.500Z,101202.34
2017-12-20T10:30:07.982Z,101193.69
2017-12-20T10:32:35.468Z,101199.41
2017-12-20T10:35:02.958Z,101195.45
2017-12-20T10:37:30.433Z,101187.97
2017-12-20T10:39:57.895Z,101182.37
2017-12-20T10:42:25.348Z,101189.67
2017-12-20T10:44:52.823Z,101185.64
2017-12-20T10:47:20.268Z,101179.98
2017-12-20T10:49:47.744Z,101180.58
2017-12-20T10:52:15.260Z,101187.50
2017-12-20T10:54:42.740Z,101179.98
2017-12-20T10:57:10.227Z,101184.36
2017-12-20T10:59:37.714Z,101179.40
2017-12-20T11:02:05.211Z,101181.65
2017-12-20T11:04:32.678Z,101176.05
2017-12-20T11:07:00.155Z,101180.55
2017-12-20T11:09:27.628Z,101181.52
2017-12-20T11:11:55.099Z,101175.66
2017-12-20T11:14:22.575Z,101174.69
2017-12-20T11:16:50.056Z,101163.78
2017-12-20T11:19:17.528Z,101172.87
2017-12-20T11:21:46.921Z,101168.53
2017-12-20T11:24:14.408Z,101160.16
2017-12-20T11:26:41.892Z,101168.70
2017-12-20T11:29:09.356Z,101157.73
2017-12-20T11:31:36.863Z,101155.56
2017-12-20T11:34:04.335Z,101147.99
2017-12-20T11:36:31.811Z,101153.61
2017-12-20T11:38:59.286Z,101146.63
2017-12-20T11:41:26.824Z,101144.77
2017-12-20T11:43:54.301Z,101150.02
2017-12-20T11:46:21.775Z,101146.69
2017-12-20T11:48:49.268Z,101151.50
2017-12-20T11:51:16.888Z,101151.79
2017-12-20T11:53:44.341Z,101157.02
2017-12-20T11:56:11.800Z,101144.00
2017-12-20T11:58:39.323Z,101148.64
2017-12-20T12:01:06.827Z,101155.42
2017-12-20T12:03:34.352Z,101144.52
2017-12-20T12:06:01.847Z,101138.25
2017-12-20T12:08:29.400Z,101135.94
2017-12-20T12:10:56.945Z,101133.66
2017-12-20T12:13:24.447Z,101127.27
2017-12-20T12:15:51.908Z,101125.39
2017-12-20T12:18:19.704Z,101126.88
2017-12-20T12:20:48.066Z,101123.77
2017-12-20T12:23:15.540Z,101124.95
2017-12-20T12:25:43.201Z,101126.39
2017-12-20T12:28:10.664Z,101120.98
2017-12-20T12:30:39.012Z,101121.05
2017-12-20T12:33:06.550Z,101108.23
2017-12-20T12:35:34.053Z,101104.84
2017-12-20T12:38:01.583Z,101121.13
2017-12-20T12:40:29.278Z,101120.02
2017-12-20T12:42:56.785Z,101114.96
2017-12-20T12:45:24.291Z,101113.73
2017-12-20T12:47:51.799Z,101114.01
2017-12-20T12:50:19.294Z,101108.63
2017-12-20T12:52:47.175Z,101109.38
2017-12-20T12:55:14.688Z,101102.20
2017-12-20T12:57:42.205Z,101101.53
2017-12-20T13:00:09.754Z,101102.67
2017-12-20T13:02:37.261Z,101104.86
2017-12-20T13:05:04.771Z,101102.34
2017-12-20T13:07:32.272Z,101102.48
2017-12-20T13:09:59.746Z,101096.12
2017-12-20T13:12:27.501Z,101090.80
2017-12-20T13:14:54.982Z,101084.47
2017-12-20T13:17:22.464Z,101091.02
2017-12-20T13:19:49.952Z,101083.12
2017-12-20T13:22:17.461Z,101088.52
2017-12-20T13:24:44.977Z,101101.87
2017-12-20T13:27:12.463Z,101089.03
2017-12-20T13:29:39.995Z,101100.28
2017-12-20T13:32:07.472Z,101094.37
2017-12-20T13:34:35.161Z,101083.02
2017-12-20T13:37:02.688Z,101087.58
2017-12-20T13:39:30.188Z,101084.03
2017-12-20T13:41:57.674Z,101093.41
2017-12-20T13:44:25.163Z,101088.70
2017-12-20T13:46:52.694Z,101086.38
2017-12-20T13:49:20.188Z,101094.45
2017-12-20T13:51:47.651Z,101098.01
2017-12-20T13:54:15.138Z,101084.91
2017-12-20T13:56:42.676Z,101092.94
2017-12-20T13:59:10.196Z,101088.27
2017-12-20T14:01:37.680Z,101085.92
2017-12-20T14:04:05.162Z,101083.56
2017-12-20T14:06:32.649Z,101085.98
2017-12-20T14:09:00.156Z,101092.91
2017-12-20T14:11:27.713Z,101094.71
2017-12-20T14:13:55.223Z,101089.97
2017-12-20T14:16:22.766Z,101079.80
2017-12-20T14:18:50.241Z,101082.55
2017-12-20T14:21:17.729Z,101099.62
2017-12-20T14:23:45.240Z,101091.84
2017-12-20T14:26:12.744Z,101089.97
2017-12-20T14:28:40.293Z,101096.16
2017-12-20T14:31:07.805Z,101090.36
2017-12-20T14:33:35.379Z,101089.16
2017-12-20T14:36:02.880Z,101091.23
2017-12-20T14:38:31.027Z,101095.77
2017-12-20T14:40:58.543Z,101098.28
2017-12-20T14:43:26.036Z,101102.49
2017-12-20T14:45:53.508Z,101110.38
2017-12-20T14:48:21.927Z,101116.00
2017-12-20T14:50:49.420Z,101116.59
2017-12-20T14:53:16.909Z,101124.78
2017-12-20T14:55:44.424Z,101120.78
2017-12-20T14:58:11.908Z,101131.15
2017-12-20T15:00:39.991Z,101123.90
2017-12-20T15:03:07.504Z,101133.88
2017-12-20T15:05:35.011Z,101143.17
2017-12-20T15:08:04.708Z,101149.58
2017-12-20T15:10:32.788Z,101144.23
2017-12-20T15:13:00.321Z,101151.76
2017-12-20T15:15:29.316Z,101154.20
2017-12-20T15:17:56.852Z,101156.70
2017-12-20T15:20:24.343Z,101146.38
2017-12-20T15:22:51.851Z,101149.86
2017-12-20T15:25:19.375Z,101145.74
2017-12-20T15:27:46.901Z,101153.84
2017-12-20T15:30:14.375Z,101154.12
2017-12-20T15:32:41.880Z,101154.01
2017-12-20T15:35:09.374Z,101157.45
2017-12-20T15:37:37.921Z,101157.89
2017-12-20T15:40:05.487Z,101164.85
2017-12-20T15:42:35.087Z,101161.77
2017-12-20T15:45:03.827Z,101165.52
2017-12-20T15:47:32.022Z,101168.80
2017-12-20T15:52:33.528Z,101175.92
2017-12-20T15:55:01.119Z,101176.83
2017-12-20T15:57:28.600Z,101170.90
2017-12-20T15:59:56.185Z,101181.81
2017-12-20T16:02:23.652Z,101179.09
2017-12-20T16:04:51.141Z,101178.20
2017-12-20T16:07:18.676Z,101168.28
2017-12-20T16:09:46.225Z,101172.44
2017-12-20T16:12:13.825Z,101177.74
2017-12-20T16:14:41.312Z,101176.36
2017-12-20T16:17:10.228Z,101176.20
2017-12-20T16:19:38.763Z,101178.88
2017-12-20T16:22:06.479Z,101184.27
2017-12-20T16:24:34.286Z,101182.56
2017-12-20T16:27:01.873Z,101179.33
2017-12-20T16:29:29.422Z,101179.92
2017-12-20T16:31:56.924Z,101188.50
2017-12-20T16:34:24.642Z,101178.06
2017-12-20T16:36:52.101Z,101183.39
2017-12-20T16:39:19.665Z,101175.84
2017-12-20T16:41:47.186Z,101183.31
2017-12-20T16:44:15.036Z,101182.28
2017-12-20T16:46:42.720Z,101185.30
2017-12-20T16:49:10.345Z,101183.31
2017-12-20T16:51:37.978Z,101181.70
2017-12-20T16:54:05.521Z,101182.96
2017-12-20T16:56:33.333Z,101171.41
2017-12-20T16:59:00.873Z,101174.89
2017-12-20T17:01:28.462Z,101181.17
2017-12-20T17:03:56.081Z,101182.20
2017-12-20T17:06:25.894Z,101176.63
2017-12-20T17:08:53.600Z,101167.14
2017-12-20T17:11:21.931Z,101167.18
2017-12-20T17:13:49.476Z,101169.55
2017-12-20T17:16:17.114Z,101165.91
2017-12-20T17:18:44.783Z,101170.81
2017-12-20T17:21:12.541Z,101171.53
2017-12-20T17:23:40.149Z,101182.05
2017-12-20T17:26:07.638Z,101183.64
2017-12-20T17:28:35.142Z,101178.77
2017-12-20T17:31:02.648Z,101181.53
2017-12-20T17:33:30.207Z,101189.84
2017-12-20T17:35:57.746Z,101185.38
2017-12-20T17:38:25.255Z,101186.13
2017-12-20T17:40:52.740Z,101189.64
2017-12-20T17:43:20.264Z,101195.70
2017-12-20T17:45:47.742Z,101187.63
2017-12-20T17:48:15.267Z,101185.22
2017-12-20T17:50:42.820Z,101193.84
2017-12-20T17:53:10.305Z,101188.86
2017-12-20T17:55:38.139Z,101190.32
2017-12-20T17:58:05.657Z,101193.17
2017-12-20T18:00:33.174Z,101198.78
2017-12-20T18:03:00.660Z,101188.77
2017-12-20T18:05:28.173Z,101193.56
2017-12-20T18:07:55.664Z,101195.19
2017-12-20T18:10:23.230Z,101196.25
2017-12-20T18:12:50.730Z,101192.45
2017-12-20T18:15:18.211Z,101199.60
2017-12-20T18:17:45.782Z,101212.83
2017-12-20T18:20:13.356Z,101201.71
2017-12-20T18:22:40.884Z,101204.60
2017-12-20T18:25:08.387Z,101201.75
2017-12-20T18:27:35.973Z,101206.97
2017-12-20T18:30:03.488Z,101207.30
2017-12-20T18:32:31.671Z,101201.59
2017-12-20T18:34:59.158Z,101202.78
2017-12-20T18:37:26.727Z,101207.76
2017-12-20T18:39:54.291Z,101206.77
2017-12-20T18:42:21.863Z,101206.02
2017-12-20T18:44:49.384Z,101208.67
2017-12-20T18:47:17.031Z,101211.28
2017-12-20T18:49:44.606Z,101209.58
2017-12-20T18:52:12.213Z,101211.95
2017-12-20T18:54:40.644Z,101207.39
2017-12-20T18:57:08.260Z,101209.30
2017-12-20T18:59:35.825Z,101218.84
2017-12-20T19:02:03.390Z,101210.99
2017-12-20T19:04:31.579Z,101221.33
2017-12-20T19:06:59.207Z,101220.70
2017-12-20T19:09:26.705Z,101226.72
2017-12-20T19:11:54.224Z,101231.13
2017-12-20T19:14:21.785Z,101227.69
2017-12-20T19:16:49.341Z,101231.00
2017-12-20T19:19:17.027Z,101223.20
2017-12-20T19:21:44.777Z,101227.72
2017-12-20T19:24:12.492Z,101228.05
2017-12-20T19:26:45.118Z,101226.74
2017-12-20T19:29:13.930Z,101225.22
2017-12-20T19:44:39.787Z,101222.84
2017-12-20T19:47:07.397Z,101224.23
2017-12-20T19:49:35.352Z,101217.87
2017-12-20T19:52:03.248Z,101220.83
2017-12-20T19:54:30.981Z,101217.69
2017-12-20T19:57:00.088Z,101221.74
2017-12-20T19:59:27.738Z,101220.39
2017-12-20T20:01:55.520Z,101224.09
2017-12-20T20:04:26.967Z,101228.28
2017-12-20T20:06:54.812Z,101233.91
2017-12-20T20:09:22.583Z,101225.50
2017-12-20T20:11:50.252Z,101227.80
2017-12-20T20:14:17.904Z,101233.30
2017-12-20T20:16:45.528Z,101230.50
2017-12-20T20:19:13.307Z,101233.82
2017-12-20T20:21:40.904Z,101241.19
2017-12-20T20:24:08.549Z,101240.35
2017-12-20T20:26:36.188Z,101236.69
2017-12-20T20:29:04.668Z,101231.46
2017-12-20T20:31:33.101Z,101233.30
2017-12-20T20:34:00.801Z,101235.30
2017-12-20T20:36:28.462Z,101227.02
2017-12-20T20:38:56.090Z,101226.28
2017-12-20T20:41:23.668Z,101232.86
2017-12-20T20:43:51.405Z,101235.95
2017-12-20T20:46:19.381Z,101234.73
2017-12-20T20:48:47.300Z,101234.56
2017-12-20T20:51:15.131Z,101231.59
2017-12-20T20:53:42.904Z,101232.55
2017-12-20T20:58:44.431Z,101222.27
2017-12-20T21:01:12.481Z,101224.18
2017-12-20T21:03:40.211Z,101218.00
2017-12-20T21:06:07.778Z,101216.59
2017-12-20T21:08:35.349Z,101225.80
2017-12-20T21:11:03.002Z,101228.84
2017-12-20T21:13:30.768Z,101221.31
2017-12-20T21:15:58.410Z,101225.15
2017-12-20T21:18:26.215Z,101220.48
2017-12-20T21:20:53.818Z,101225.62
2017-12-20T21:23:22.216Z,101220.34
2017-12-20T21:25:49.886Z,101223.35
2017-12-20T21:28:24.935Z,101223.57
2017-12-20T21:30:52.725Z,101227.98
2017-12-20T21:33:20.252Z,101224.27
2017-12-20T21:35:47.788Z,101229.20
2017-12-20T21:38:15.458Z,101226.53
2017-12-20T21:40:43.000Z,101232.06
2017-12-20T21:43:10.477Z,101232.80
2017-12-20T21:45:38.000Z,101236.30
2017-12-20T21:48:05.637Z,101238.33
2017-12-20T21:50:34.848Z,101240.44
2017-12-20T21:53:02.341Z,101235.86
2017-12-20T21:55:29.900Z,101238.74
2017-12-20T21:58:00.281Z,101239.27
2017-12-20T22:00:33.335Z,101240.39
2017-12-20T22:03:01.612Z,101244.89
2017-12-20T22:05:29.137Z,101243.66
2017-12-20T22:07:56.662Z,101241.26
2017-12-20T22:10:24.370Z,101244.66
2017-12-20T22:12:51.908Z,101246.80
2017-12-20T22:15:19.501Z,101246.23
2017-12-20T22:17:46.997Z,101249.77
2017-12-20T22:20:14.745Z,101248.45
2017-12-20T22:22:42.278Z,101249.59
2017-12-20T22:25:11.290Z,101247.15
2017-12-20T22:27:38.851Z,101244.84
2017-12-20T22:30:06.327Z,101252.73
2017-12-20T22:32:34.772Z,101249.03
2017-12-20T22:35:02.253Z,101249.50
2017-12-20T22:37:29.719Z,101250.06
2017-12-20T22:39:57.449Z,101245.14
2017-12-20T22:42:24.956Z,101249.41
2017-12-20T22:44:52.431Z,101244.79
2017-12-20T22:47:19.901Z,101245.23
2017-12-20T22:49:47.359Z,101240.37
2017-12-20T22:52:15.297Z,101248.62
2017-12-20T22:54:42.811Z,101242.83
2017-12-20T22:57:10.265Z,101238.76
2017-12-20T22:59:37.742Z,101244.77
2017-12-20T23:02:05.216Z,101236.28
2017-12-20T23:04:33.183Z,101239.69
2017-12-20T23:07:00.643Z,101230.59
2017-12-20T23:09:28.101Z,101231.85
2017-12-20T23:11:55.584Z,101235.33
2017-12-20T23:14:23.055Z,101227.06
2017-12-20T23:16:50.532Z,101228.97
2017-12-20T23:19:18.008Z,101236.33
2017-12-20T23:21:45.461Z,101227.63
2017-12-20T23:24:12.948Z,101226.32
2017-12-20T23:26:40.412Z,101221.30
2017-12-20T23:29:07.871Z,101220.55
2017-12-20T23:31:35.418Z,101219.09
2017-12-20T23:34:02.993Z,101217.54
2017-12-20T23:36:30.529Z,101212.19
2017-12-20T23:38:58.038Z,101213.86
2017-12-20T23:41:25.508Z,101210.58
2017-12-20T23:43:53.094Z,101214.02
2017-12-20T23:46:20.576Z,101213.18
2017-12-20T23:48:48.074Z,101209.93
2017-12-20T23:51:16.586Z,101202.65
2017-12-20T23:53:44.092Z,101204.31
2017-12-20T23:56:11.585Z,101198.62
2017-12-20T23:58:39.050Z,101198.84
